Time;durP1;ratioP1;P1;durP2;ratioP2;P2;SDS_P1;SDS_P2;PMS_P1;PMS_P2;Temp;Humidity;BMP_temperature;BMP_pressure;BME280_temperature;BME280_humidity;BME280_pressure;Samples;Min_cycle;Max_cycle;Signal;HPM_P1;HPM_P2
2023/07/27 00:01:39;;;;;;;5.72;3.83;;;;;;;;;;5032238;28;20493;-59
2023/07/27 00:04:06;;;;;;;8.43;4.22;;;;;;;;;;5028865;28;20484;-56
2023/07/27 00:06:33;;;;;;;6.60;4.00;;;;;;;;;;5031012;28;20427;-58
2023/07/27 00:09:00;;;;;;;7.00;3.50;;;;;;;;;;5030203;28;20427;-59
2023/07/27 00:11:27;;;;;;;5.05;4.03;;;;;;;;;;5034575;28;20511;-58
2023/07/27 00:13:56;;;;;;;7.47;4.00;;;;;;;;;;5029494;28;20832;-58
2023/07/27 00:16:23;;;;;;;6.15;4.10;;;;;;;;;;5034603;28;20423;-59
2023/07/27 00:18:50;;;;;;;6.80;3.60;;;;;;;;;;5029380;28;20418;-55
2023/07/27 00:21:17;;;;;;;6.43;4.07;;;;;;;;;;5034683;28;20431;-59
2023/07/27 00:23:44;;;;;;;5.17;3.97;;;;;;;;;;5031379;28;20430;-58
2023/07/27 00:26:11;;;;;;;6.13;3.80;;;;;;;;;;5035569;28;20444;-59
2023/07/27 00:28:38;;;;;;;4.90;3.77;;;;;;;;;;5032174;28;20933;-59
2023/07/27 00:31:06;;;;;;;7.60;3.70;;;;;;;;;;5035979;28;20422;-59
2023/07/27 00:33:33;;;;;;;6.00;3.53;;;;;;;;;;5031477;28;20441;-58
2023/07/27 00:36:00;;;;;;;6.80;3.60;;;;;;;;;;5034248;28;20800;-58
2023/07/27 00:38:28;;;;;;;5.70;3.90;;;;;;;;;;5031900;28;20417;-58
2023/07/27 00:40:55;;;;;;;8.73;3.80;;;;;;;;;;5036357;28;20484;-56
2023/07/27 00:43:22;;;;;;;6.53;3.40;;;;;;;;;;5032710;28;20473;-58
2023/07/27 00:45:49;;;;;;;6.97;3.67;;;;;;;;;;5035994;28;21058;-58
2023/07/27 00:48:18;;;;;;;5.50;3.50;;;;;;;;;;5032397;28;20428;-59
2023/07/27 00:50:45;;;;;;;7.97;3.80;;;;;;;;;;5036779;28;20460;-59
2023/07/27 00:53:13;;;;;;;6.40;3.70;;;;;;;;;;5031790;28;20422;-59
2023/07/27 00:55:40;;;;;;;6.03;3.70;;;;;;;;;;5032793;28;20417;-59
2023/07/27 00:58:08;;;;;;;6.47;3.50;;;;;;;;;;5033209;28;20473;-59
2023/07/27 01:00:35;;;;;;;5.97;3.78;;;;;;;;;;5036705;28;20441;-57
2023/07/27 01:03:03;;;;;;;5.90;3.42;;;;;;;;;;5033009;28;20422;-59
2023/07/27 01:05:32;;;;;;;6.93;3.35;;;;;;;;;;5034155;28;20418;-59
2023/07/27 01:07:59;;;;;;;5.43;3.50;;;;;;;;;;5033464;28;20477;-58
2023/07/27 01:10:29;;;;;;;5.05;3.47;;;;;;;;;;5033900;28;20893;-59
2023/07/27 01:13:00;;;;;;;5.88;3.40;;;;;;;;;;5036792;28;20417;-58
2023/07/27 01:15:30;;;;;;;6.03;3.45;;;;;;;;;;5028567;28;20500;-58
2023/07/27 01:18:00;;;;;;;5.68;3.40;;;;;;;;;;5033804;28;20423;-59
2023/07/27 01:20:30;;;;;;;6.38;3.58;;;;;;;;;;5034105;28;20468;-59
2023/07/27 01:23:12;;;;;;;5.50;3.33;;;;;;;;;;5034241;28;20450;-57
2023/07/27 01:25:49;;;;;;;6.63;3.55;;;;;;;;;;5028942;28;20483;-58
2023/07/27 01:28:26;;;;;;;5.70;3.45;;;;;;;;;;5034536;28;20476;-58
2023/07/27 01:30:57;;;;;;;5.03;3.17;;;;;;;;;;5030983;28;20457;-57
2023/07/27 01:33:27;;;;;;;7.15;3.65;;;;;;;;;;5035454;28;20457;-57
2023/07/27 01:36:03;;;;;;;4.57;3.15;;;;;;;;;;5034046;28;20804;-59
2023/07/27 01:38:32;;;;;;;4.60;3.38;;;;;;;;;;5036155;28;20418;-59
2023/07/27 01:41:00;;;;;;;6.80;3.43;;;;;;;;;;5031225;28;20904;-58
2023/07/27 01:43:28;;;;;;;4.63;3.00;;;;;;;;;;5037986;28;20473;-59
2023/07/27 01:45:56;;;;;;;5.70;3.10;;;;;;;;;;5033444;28;20427;-60
2023/07/27 01:48:26;;;;;;;5.50;3.38;;;;;;;;;;5037396;28;20418;-56
2023/07/27 01:50:54;;;;;;;5.57;3.43;;;;;;;;;;5031687;28;20417;-59
2023/07/27 01:53:22;;;;;;;4.60;3.20;;;;;;;;;;5041660;28;20420;-59
2023/07/27 01:55:50;;;;;;;6.10;3.30;;;;;;;;;;5035126;28;20472;-58
2023/07/27 01:58:17;;;;;;;4.78;3.15;;;;;;;;;;5039755;28;20593;-58
2023/07/27 02:00:45;;;;;;;4.32;3.00;;;;;;;;;;5034503;28;20847;-59
2023/07/27 02:03:13;;;;;;;5.65;3.08;;;;;;;;;;5032116;28;20481;-57
2023/07/27 02:05:40;;;;;;;6.97;3.10;;;;;;;;;;5036242;28;20417;-58
2023/07/27 02:08:07;;;;;;;6.65;3.28;;;;;;;;;;5036203;28;20908;-57
2023/07/27 02:10:35;;;;;;;5.78;3.08;;;;;;;;;;5036365;28;20557;-58
2023/07/27 02:13:05;;;;;;;5.68;3.35;;;;;;;;;;5032889;28;20828;-58
2023/07/27 02:15:34;;;;;;;5.32;3.30;;;;;;;;;;5035958;28;20421;-58
2023/07/27 02:18:03;;;;;;;5.63;3.22;;;;;;;;;;5029395;28;20427;-57
2023/07/27 02:20:34;;;;;;;4.45;3.15;;;;;;;;;;5034600;28;20513;-58
2023/07/27 02:23:02;;;;;;;5.05;3.17;;;;;;;;;;5029148;28;20419;-60
2023/07/27 02:25:30;;;;;;;4.90;2.90;;;;;;;;;;5036745;28;20475;-60
2023/07/27 02:27:57;;;;;;;4.88;3.50;;;;;;;;;;5035044;28;20766;-58
2023/07/27 02:30:24;;;;;;;5.03;3.10;;;;;;;;;;5039472;28;20555;-61
2023/07/27 02:32:51;;;;;;;4.72;2.88;;;;;;;;;;5034271;28;20474;-59
2023/07/27 02:35:18;;;;;;;6.00;3.50;;;;;;;;;;5038138;28;20419;-59
2023/07/27 02:37:46;;;;;;;5.72;3.40;;;;;;;;;;5035297;28;20421;-57
2023/07/27 02:40:13;;;;;;;5.53;3.37;;;;;;;;;;5033846;28;20476;-59
2023/07/27 02:42:40;;;;;;;6.57;3.25;;;;;;;;;;5032906;28;20427;-60
2023/07/27 02:45:07;;;;;;;5.47;3.53;;;;;;;;;;5035287;28;20492;-59
2023/07/27 02:47:34;;;;;;;6.53;3.55;;;;;;;;;;5035841;28;20427;-58
2023/07/27 02:50:01;;;;;;;6.20;3.90;;;;;;;;;;5031671;28;20477;-56
2023/07/27 02:52:28;;;;;;;5.78;3.65;;;;;;;;;;5034017;28;20419;-59
2023/07/27 02:54:56;;;;;;;6.20;3.67;;;;;;;;;;5034228;28;20473;-57
2023/07/27 02:57:23;;;;;;;6.80;3.60;;;;;;;;;;5037240;28;20480;-60
2023/07/27 02:59:50;;;;;;;7.68;4.20;;;;;;;;;;5034953;28;20818;-60
2023/07/27 03:02:18;;;;;;;6.70;3.88;;;;;;;;;;5033639;28;20442;-59
2023/07/27 03:04:45;;;;;;;6.72;4.10;;;;;;;;;;5036140;28;20424;-59
2023/07/27 03:07:12;;;;;;;6.10;4.22;;;;;;;;;;5035741;28;20425;-57
2023/07/27 03:09:39;;;;;;;5.65;4.50;;;;;;;;;;5029704;28;20488;-59
2023/07/27 03:12:08;;;;;;;7.50;4.07;;;;;;;;;;5034227;28;20431;-59
2023/07/27 03:14:35;;;;;;;7.63;4.47;;;;;;;;;;5036280;28;20418;-60
2023/07/27 03:17:02;;;;;;;9.50;4.90;;;;;;;;;;5031856;28;20421;-60
2023/07/27 03:19:29;;;;;;;6.80;4.50;;;;;;;;;;5036961;28;20530;-60
2023/07/27 03:21:56;;;;;;;10.00;4.78;;;;;;;;;;5031136;28;20429;-58
2023/07/27 03:24:23;;;;;;;8.32;4.88;;;;;;;;;;5034438;28;20916;-59
2023/07/27 03:26:50;;;;;;;8.40;5.20;;;;;;;;;;5033312;28;20487;-59
2023/07/27 03:29:19;;;;;;;8.25;4.90;;;;;;;;;;5037136;28;20947;-59
2023/07/27 03:31:46;;;;;;;8.07;5.22;;;;;;;;;;5030973;28;20414;-58
2023/07/27 03:34:12;;;;;;;9.73;5.25;;;;;;;;;;5036615;28;20429;-58
2023/07/27 03:36:40;;;;;;;6.80;4.90;;;;;;;;;;5034531;28;20766;-59
2023/07/27 03:39:07;;;;;;;6.97;5.20;;;;;;;;;;5035971;28;20499;-59
2023/07/27 03:41:34;;;;;;;8.23;5.70;;;;;;;;;;5034271;28;20450;-56
2023/07/27 03:44:01;;;;;;;10.23;5.43;;;;;;;;;;5037362;28;20501;-59
2023/07/27 03:46:29;;;;;;;10.43;5.78;;;;;;;;;;5032315;28;20847;-61
2023/07/27 03:48:56;;;;;;;8.38;6.07;;;;;;;;;;5037226;28;20427;-59
2023/07/27 03:51:23;;;;;;;8.73;6.03;;;;;;;;;;5035047;28;20418;-62
2023/07/27 03:53:50;;;;;;;8.98;5.72;;;;;;;;;;5030901;28;20427;-58
2023/07/27 03:56:17;;;;;;;9.25;5.53;;;;;;;;;;5033039;28;20975;-61
2023/07/27 03:58:44;;;;;;;9.73;5.65;;;;;;;;;;5031537;28;20419;-61
2023/07/27 04:01:11;;;;;;;8.20;5.97;;;;;;;;;;5035971;28;20446;-59
2023/07/27 04:03:40;;;;;;;9.63;6.15;;;;;;;;;;5028188;28;20425;-61
2023/07/27 04:06:07;;;;;;;10.20;6.47;;;;;;;;;;5032903;28;20476;-60
2023/07/27 04:08:34;;;;;;;8.32;6.15;;;;;;;;;;5038331;28;20898;-61
2023/07/27 04:11:01;;;;;;;8.13;6.28;;;;;;;;;;5039718;28;20466;-60
2023/07/27 04:13:28;;;;;;;9.97;6.40;;;;;;;;;;5037780;28;20452;-59
2023/07/27 04:15:55;;;;;;;10.18;7.03;;;;;;;;;;5033775;28;20815;-61
2023/07/27 04:18:22;;;;;;;11.23;7.70;;;;;;;;;;5029451;28;20426;-60
2023/07/27 04:20:50;;;;;;;9.77;6.55;;;;;;;;;;5035219;28;20413;-60
2023/07/27 04:23:17;;;;;;;8.30;6.70;;;;;;;;;;5035350;28;20842;-61
2023/07/27 04:25:44;;;;;;;8.82;6.95;;;;;;;;;;5038887;28;20415;-57
2023/07/27 04:28:11;;;;;;;8.52;6.78;;;;;;;;;;5031835;28;20457;-61
2023/07/27 04:30:38;;;;;;;10.18;7.25;;;;;;;;;;5035008;28;20465;-60
2023/07/27 04:33:05;;;;;;;12.70;7.28;;;;;;;;;;5029383;28;20507;-60
2023/07/27 04:35:32;;;;;;;11.05;7.22;;;;;;;;;;5034403;28;20429;-60
2023/07/27 04:38:00;;;;;;;11.35;8.00;;;;;;;;;;5030227;28;20423;-61
2023/07/27 04:40:27;;;;;;;12.00;8.35;;;;;;;;;;5035217;28;21387;-60
2023/07/27 04:42:54;;;;;;;12.50;8.33;;;;;;;;;;5031518;28;20492;-58
2023/07/27 04:45:21;;;;;;;11.82;8.25;;;;;;;;;;5035516;28;20418;-60
2023/07/27 04:47:48;;;;;;;12.48;8.27;;;;;;;;;;5030168;28;20427;-59
2023/07/27 04:50:15;;;;;;;11.52;8.35;;;;;;;;;;5031985;28;20480;-60
2023/07/27 04:52:42;;;;;;;9.98;7.32;;;;;;;;;;5034535;28;20429;-61
2023/07/27 04:55:10;;;;;;;12.85;8.18;;;;;;;;;;5033827;28;20427;-60
2023/07/27 04:57:37;;;;;;;11.10;7.93;;;;;;;;;;5035175;28;20484;-63
2023/07/27 05:00:05;;;;;;;9.85;7.15;;;;;;;;;;5045205;28;20409;-62
2023/07/27 05:02:32;;;;;;;11.35;7.70;;;;;;;;;;5033342;28;20706;-61
2023/07/27 05:04:59;;;;;;;11.20;7.30;;;;;;;;;;5028835;28;20431;-62
2023/07/27 05:07:26;;;;;;;10.15;8.00;;;;;;;;;;5032903;28;20484;-62
2023/07/27 05:09:53;;;;;;;11.35;7.50;;;;;;;;;;5033067;28;20415;-62
2023/07/27 05:12:21;;;;;;;10.60;7.63;;;;;;;;;;5032581;28;20956;-62
2023/07/27 05:14:48;;;;;;;9.60;7.37;;;;;;;;;;5030266;28;20469;-62
2023/07/27 05:17:15;;;;;;;11.35;7.38;;;;;;;;;;5030508;28;20464;-62
2023/07/27 05:19:42;;;;;;;10.43;7.27;;;;;;;;;;5031280;28;20444;-62
2023/07/27 05:22:09;;;;;;;11.15;7.32;;;;;;;;;;5033319;28;20470;-62
2023/07/27 05:24:36;;;;;;;10.40;7.82;;;;;;;;;;5040326;28;20929;-62
2023/07/27 05:27:03;;;;;;;9.00;7.15;;;;;;;;;;5035951;28;20441;-64
2023/07/27 05:29:32;;;;;;;11.80;7.20;;;;;;;;;;5047146;28;20420;-61
2023/07/27 05:31:59;;;;;;;10.90;7.45;;;;;;;;;;5034576;28;20983;-61
2023/07/27 05:34:26;;;;;;;10.88;7.28;;;;;;;;;;5036986;28;20417;-61
2023/07/27 05:36:53;;;;;;;10.60;7.35;;;;;;;;;;5034070;28;20430;-63
2023/07/27 05:39:20;;;;;;;13.23;7.00;;;;;;;;;;5038624;28;20923;-64
2023/07/27 05:41:47;;;;;;;9.95;6.80;;;;;;;;;;5028284;28;20437;-64
2023/07/27 05:44:14;;;;;;;10.07;7.18;;;;;;;;;;5033818;28;20440;-64
2023/07/27 05:46:42;;;;;;;14.45;7.20;;;;;;;;;;5033350;28;20421;-63
2023/07/27 05:49:09;;;;;;;12.35;6.47;;;;;;;;;;5029987;28;20459;-61
2023/07/27 05:51:36;;;;;;;12.13;6.90;;;;;;;;;;5036951;28;20561;-60
2023/07/27 05:54:03;;;;;;;10.27;6.35;;;;;;;;;;5031364;28;20549;-60
2023/07/27 05:56:30;;;;;;;10.23;6.55;;;;;;;;;;5035189;28;20457;-59
2023/07/27 05:58:57;;;;;;;10.45;6.55;;;;;;;;;;5037406;28;20435;-59
2023/07/27 06:01:24;;;;;;;9.15;6.00;;;;;;;;;;5030688;28;20422;-59
2023/07/27 06:03:53;;;;;;;10.82;5.78;;;;;;;;;;5034996;28;21124;-57
2023/07/27 06:06:20;;;;;;;6.82;5.07;;;;;;;;;;5033939;28;20426;-60
2023/07/27 06:08:47;;;;;;;7.18;5.13;;;;;;;;;;5037110;28;20781;-59
2023/07/27 06:11:13;;;;;;;7.95;5.10;;;;;;;;;;5036367;28;20457;-61
2023/07/27 06:13:40;;;;;;;6.07;4.97;;;;;;;;;;5037353;28;20469;-62
2023/07/27 06:16:07;;;;;;;8.10;5.32;;;;;;;;;;5034323;28;20982;-62
2023/07/27 06:18:35;;;;;;;7.35;4.78;;;;;;;;;;5037966;28;20471;-62
2023/07/27 06:21:03;;;;;;;6.57;4.67;;;;;;;;;;5036009;28;20517;-61
2023/07/27 06:23:30;;;;;;;8.25;5.20;;;;;;;;;;5030302;28;20472;-60
2023/07/27 06:25:57;;;;;;;6.32;5.10;;;;;;;;;;5032893;28;20418;-63
2023/07/27 06:28:24;;;;;;;6.78;5.00;;;;;;;;;;5034283;28;20420;-63
2023/07/27 06:30:51;;;;;;;7.15;4.68;;;;;;;;;;5042879;28;20414;-62
2023/07/27 06:33:18;;;;;;;8.23;4.65;;;;;;;;;;5031699;28;20931;-62
2023/07/27 06:35:45;;;;;;;5.85;4.13;;;;;;;;;;5034510;28;20430;-59
2023/07/27 06:38:14;;;;;;;5.50;4.30;;;;;;;;;;5032903;28;20843;-62
2023/07/27 06:40:41;;;;;;;4.80;3.80;;;;;;;;;;5039189;28;20937;-61
2023/07/27 06:43:08;;;;;;;6.27;4.03;;;;;;;;;;5032356;28;20442;-60
2023/07/27 06:45:35;;;;;;;4.07;3.67;;;;;;;;;;5034277;28;20529;-61
2023/07/27 06:48:03;;;;;;;4.75;3.75;;;;;;;;;;5030107;28;20508;-59
2023/07/27 06:50:30;;;;;;;4.10;3.67;;;;;;;;;;5041463;28;20511;-60
2023/07/27 06:52:57;;;;;;;4.10;3.50;;;;;;;;;;5036315;28;20429;-60
2023/07/27 06:55:25;;;;;;;4.82;3.70;;;;;;;;;;5037563;28;20471;-60
2023/07/27 06:57:56;;;;;;;5.45;3.78;;;;;;;;;;5030237;28;20472;-60
2023/07/27 07:00:23;;;;;;;4.70;3.80;;;;;;;;;;5036276;28;20446;-60
2023/07/27 07:02:50;;;;;;;3.97;3.45;;;;;;;;;;5033406;28;20441;-60
2023/07/27 07:05:17;;;;;;;4.45;3.65;;;;;;;;;;5032097;28;20419;-61
2023/07/27 07:07:44;;;;;;;3.95;3.55;;;;;;;;;;5032551;28;20430;-60
2023/07/27 07:10:11;;;;;;;4.10;3.50;;;;;;;;;;5037986;28;20440;-60
2023/07/27 07:12:40;;;;;;;3.97;3.38;;;;;;;;;;5034717;28;20472;-59
2023/07/27 07:15:07;;;;;;;3.80;3.40;;;;;;;;;;5037453;28;20457;-58
2023/07/27 07:17:34;;;;;;;5.20;3.72;;;;;;;;;;5035223;28;20423;-59
2023/07/27 07:20:04;;;;;;;3.60;3.30;;;;;;;;;;5031750;28;20418;-61
2023/07/27 07:22:32;;;;;;;5.40;3.30;;;;;;;;;;5027250;28;20431;-60
2023/07/27 07:24:59;;;;;;;4.75;3.47;;;;;;;;;;5038548;28;20421;-58
2023/07/27 07:27:26;;;;;;;5.00;3.40;;;;;;;;;;5035853;28;20418;-63
2023/07/27 07:29:54;;;;;;;5.47;3.10;;;;;;;;;;5040290;28;20421;-61
2023/07/27 07:32:21;;;;;;;3.10;2.80;;;;;;;;;;5037714;28;20438;-61
2023/07/27 07:34:48;;;;;;;3.58;2.92;;;;;;;;;;5034463;28;20445;-60
2023/07/27 07:37:15;;;;;;;5.03;2.80;;;;;;;;;;5033659;28;20490;-60
2023/07/27 07:39:42;;;;;;;3.22;2.58;;;;;;;;;;5034081;28;20783;-60
2023/07/27 07:42:09;;;;;;;3.35;2.65;;;;;;;;;;5029175;28;20431;-61
2023/07/27 07:44:36;;;;;;;3.55;3.03;;;;;;;;;;5039379;28;20425;-59
2023/07/27 07:47:04;;;;;;;3.13;2.80;;;;;;;;;;5030505;28;20419;-60
2023/07/27 07:49:31;;;;;;;3.00;2.70;;;;;;;;;;5035986;28;20417;-59
2023/07/27 07:51:58;;;;;;;6.15;3.00;;;;;;;;;;5038530;28;20415;-60
2023/07/27 07:54:26;;;;;;;3.38;3.08;;;;;;;;;;5039591;28;20418;-59
2023/07/27 07:56:54;;;;;;;2.75;2.40;;;;;;;;;;5037934;28;20430;-59
2023/07/27 07:59:21;;;;;;;3.08;2.75;;;;;;;;;;5036013;28;20738;-58
2023/07/27 08:01:48;;;;;;;4.20;3.10;;;;;;;;;;5034913;28;20422;-59
2023/07/27 08:04:17;;;;;;;3.03;2.80;;;;;;;;;;5030175;28;20434;-58
2023/07/27 08:06:45;;;;;;;4.97;2.92;;;;;;;;;;5032525;28;20510;-63
2023/07/27 08:09:12;;;;;;;3.58;3.10;;;;;;;;;;5031589;28;20494;-61
2023/07/27 08:11:41;;;;;;;2.97;2.72;;;;;;;;;;5038197;28;20455;-59
2023/07/27 08:14:08;;;;;;;3.30;3.00;;;;;;;;;;5029496;28;20423;-59
2023/07/27 08:16:35;;;;;;;3.63;3.25;;;;;;;;;;5034386;28;20517;-58
2023/07/27 08:19:02;;;;;;;4.15;3.75;;;;;;;;;;5029851;28;20995;-57
2023/07/27 08:21:30;;;;;;;3.70;3.40;;;;;;;;;;5035640;28;20437;-62
2023/07/27 08:23:58;;;;;;;3.40;3.10;;;;;;;;;;5028634;28;20439;-61
2023/07/27 08:26:25;;;;;;;3.70;3.30;;;;;;;;;;5031050;28;20495;-61
2023/07/27 08:28:52;;;;;;;3.55;3.10;;;;;;;;;;5035964;28;20785;-63
2023/07/27 08:31:19;;;;;;;3.45;3.17;;;;;;;;;;5041796;28;20489;-62
2023/07/27 08:33:47;;;;;;;3.47;3.17;;;;;;;;;;5029420;28;20415;-60
2023/07/27 08:36:14;;;;;;;3.90;3.60;;;;;;;;;;5034514;28;20411;-62
2023/07/27 08:38:42;;;;;;;4.05;3.65;;;;;;;;;;5031030;28;20454;-61
2023/07/27 08:41:09;;;;;;;4.20;3.30;;;;;;;;;;5039230;28;20941;-59
2023/07/27 08:43:36;;;;;;;3.65;3.35;;;;;;;;;;5037521;28;20435;-58
2023/07/27 08:46:04;;;;;;;3.80;3.50;;;;;;;;;;5033336;28;20415;-58
2023/07/27 08:48:31;;;;;;;4.20;3.80;;;;;;;;;;5030629;28;20928;-57
2023/07/27 08:50:59;;;;;;;3.80;3.40;;;;;;;;;;5041739;28;20502;-60
2023/07/27 08:53:26;;;;;;;3.90;3.60;;;;;;;;;;5026528;28;20767;-61
2023/07/27 08:55:54;;;;;;;3.95;3.58;;;;;;;;;;5034195;28;20411;-60
2023/07/27 08:58:21;;;;;;;3.75;3.45;;;;;;;;;;5032888;28;20462;-62
2023/07/27 09:00:48;;;;;;;3.80;3.50;;;;;;;;;;5041254;28;20449;-63
2023/07/27 09:03:15;;;;;;;3.97;3.67;;;;;;;;;;5037837;28;20435;-61
2023/07/27 09:05:43;;;;;;;3.80;3.50;;;;;;;;;;5041381;28;20417;-64
2023/07/27 09:08:12;;;;;;;3.80;3.50;;;;;;;;;;5037515;28;20429;-63
2023/07/27 09:10:39;;;;;;;3.75;3.28;;;;;;;;;;5042983;28;20777;-63
2023/07/27 09:13:08;;;;;;;3.42;3.13;;;;;;;;;;5034367;28;20473;-65
2023/07/27 09:15:36;;;;;;;3.25;2.95;;;;;;;;;;5038236;28;20494;-59
2023/07/27 09:18:09;;;;;;;3.00;2.70;;;;;;;;;;5032892;28;20474;-60
2023/07/27 09:20:36;;;;;;;3.30;3.00;;;;;;;;;;5042626;28;20849;-61
2023/07/27 09:23:03;;;;;;;2.90;2.70;;;;;;;;;;5033381;28;20423;-59
2023/07/27 09:25:30;;;;;;;3.17;2.97;;;;;;;;;;5040678;28;20413;-61
2023/07/27 09:27:57;;;;;;;2.83;2.63;;;;;;;;;;5035615;28;20420;-61
2023/07/27 09:30:26;;;;;;;2.70;2.50;;;;;;;;;;5047517;28;20414;-61
2023/07/27 09:32:53;;;;;;;4.00;2.77;;;;;;;;;;5036843;28;20432;-62
2023/07/27 09:35:21;;;;;;;2.38;2.17;;;;;;;;;;5035479;28;20501;-58
2023/07/27 09:37:48;;;;;;;3.08;2.70;;;;;;;;;;5038340;28;20413;-61
2023/07/27 09:40:16;;;;;;;2.70;2.45;;;;;;;;;;5035320;28;20788;-63
2023/07/27 09:42:44;;;;;;;5.40;2.50;;;;;;;;;;5038763;28;20418;-62
2023/07/27 09:45:11;;;;;;;2.78;2.58;;;;;;;;;;5041800;28;20472;-64
2023/07/27 09:47:40;;;;;;;2.40;2.20;;;;;;;;;;5034677;28;20489;-62
2023/07/27 09:50:08;;;;;;;3.22;2.80;;;;;;;;;;5041917;28;20413;-62
2023/07/27 09:52:36;;;;;;;2.83;2.63;;;;;;;;;;5040742;28;20917;-63
2023/07/27 09:55:03;;;;;;;2.70;2.50;;;;;;;;;;5039930;28;20469;-65
2023/07/27 09:57:31;;;;;;;3.15;2.85;;;;;;;;;;5036593;28;20426;-64
2023/07/27 09:59:58;;;;;;;4.37;2.43;;;;;;;;;;5037844;28;20417;-66
2023/07/27 10:02:25;;;;;;;2.47;2.28;;;;;;;;;;5033096;28;20422;-64
2023/07/27 10:04:54;;;;;;;2.45;2.25;;;;;;;;;;5031821;28;20920;-65
2023/07/27 10:07:22;;;;;;;2.40;2.20;;;;;;;;;;5032968;28;20426;-59
2023/07/27 10:09:49;;;;;;;2.20;2.00;;;;;;;;;;5036542;28;20413;-59
2023/07/27 10:12:28;;;;;;;2.88;1.98;;;;;;;;;;5036519;28;20422;-67
2023/07/27 10:15:10;;;;;;;1.90;1.80;;;;;;;;;;5033865;28;20423;-66
2023/07/27 10:17:42;;;;;;;2.08;1.88;;;;;;;;;;5032052;28;20431;-68
2023/07/27 10:20:22;;;;;;;2.22;1.90;;;;;;;;;;5030879;28;20501;-67
2023/07/27 10:22:52;;;;;;;1.65;1.55;;;;;;;;;;5039484;28;20449;-66
2023/07/27 10:25:19;;;;;;;1.83;1.63;;;;;;;;;;5037206;28;20442;-67
2023/07/27 10:27:56;;;;;;;3.13;1.60;;;;;;;;;;5034551;28;20510;-64
2023/07/27 10:30:23;;;;;;;1.65;1.50;;;;;;;;;;5041266;28;20413;-66
2023/07/27 10:33:05;;;;;;;2.33;1.63;;;;;;;;;;5028703;28;20780;-65
2023/07/27 10:35:54;;;;;;;4.20;1.30;;;;;;;;;;5037311;28;20423;-65
2023/07/27 10:38:23;;;;;;;1.60;1.30;;;;;;;;;;5032649;28;20469;-64
2023/07/27 10:40:50;;;;;;;1.48;1.35;;;;;;;;;;5036593;28;20512;-64
2023/07/27 10:43:17;;;;;;;2.13;1.43;;;;;;;;;;5032825;28;20419;-64
2023/07/27 10:45:52;;;;;;;1.58;1.20;;;;;;;;;;5037568;28;20427;-64
2023/07/27 10:48:20;;;;;;;1.45;1.30;;;;;;;;;;5040182;28;20473;-64
2023/07/27 10:50:49;;;;;;;1.92;1.30;;;;;;;;;;5043985;28;20427;-65
2023/07/27 10:53:16;;;;;;;2.08;1.58;;;;;;;;;;5032301;28;20759;-65
2023/07/27 10:55:44;;;;;;;2.25;1.73;;;;;;;;;;5037438;28;20424;-64
2023/07/27 10:58:12;;;;;;;2.35;2.08;;;;;;;;;;5037579;28;20449;-68
2023/07/27 11:00:39;;;;;;;4.07;2.38;;;;;;;;;;5030381;28;20840;-69
2023/07/27 11:03:06;;;;;;;2.47;2.28;;;;;;;;;;5032763;28;20427;-65
2023/07/27 11:05:33;;;;;;;2.30;2.10;;;;;;;;;;5035325;28;20430;-66
2023/07/27 11:08:03;;;;;;;2.67;2.42;;;;;;;;;;5038339;28;20838;-68
2023/07/27 11:10:32;;;;;;;4.07;2.53;;;;;;;;;;5038334;28;20417;-68
2023/07/27 11:12:59;;;;;;;3.50;3.20;;;;;;;;;;5039239;28;20421;-65
2023/07/27 11:15:29;;;;;;;3.90;3.50;;;;;;;;;;5031943;28;20418;-66
2023/07/27 11:17:56;;;;;;;4.75;3.97;;;;;;;;;;5033915;28;21117;-66
2023/07/27 11:20:25;;;;;;;4.60;4.20;;;;;;;;;;5037334;28;20455;-65
2023/07/27 11:22:52;;;;;;;5.20;4.70;;;;;;;;;;5036386;28;20431;-65
2023/07/27 11:25:21;;;;;;;5.50;5.00;;;;;;;;;;5036491;28;20438;-65
2023/07/27 11:27:48;;;;;;;5.20;4.70;;;;;;;;;;5035308;28;20427;-65
2023/07/27 11:30:17;;;;;;;5.82;5.25;;;;;;;;;;5041761;28;20471;-68
2023/07/27 11:32:44;;;;;;;6.00;5.47;;;;;;;;;;5035124;28;20518;-65
2023/07/27 11:35:11;;;;;;;7.77;5.37;;;;;;;;;;5033723;28;20505;-67
2023/07/27 11:37:38;;;;;;;5.70;5.20;;;;;;;;;;5027937;28;20952;-67
2023/07/27 11:40:06;;;;;;;5.60;5.10;;;;;;;;;;5033640;28;20430;-69
2023/07/27 11:42:37;;;;;;;6.63;5.60;;;;;;;;;;5034072;28;20497;-67
2023/07/27 11:45:06;;;;;;;7.45;5.35;;;;;;;;;;5038372;28;20438;-66
2023/07/27 11:47:37;;;;;;;5.32;4.82;;;;;;;;;;5034898;28;20454;-64
2023/07/27 11:50:06;;;;;;;5.90;5.15;;;;;;;;;;5036961;28;20427;-67
2023/07/27 11:52:33;;;;;;;5.40;4.90;;;;;;;;;;5029107;28;20423;-66
2023/07/27 11:55:02;;;;;;;5.38;4.88;;;;;;;;;;5037022;28;20496;-65
2023/07/27 11:57:30;;;;;;;6.03;5.07;;;;;;;;;;5029681;28;20450;-65
2023/07/27 12:00:06;;;;;;;5.38;4.88;;;;;;;;;;5035043;28;20421;-66
2023/07/27 12:02:33;;;;;;;5.20;4.70;;;;;;;;;;5030594;28;20419;-68
2023/07/27 12:05:00;;;;;;;4.53;4.13;;;;;;;;;;5038452;28;20546;-68
2023/07/27 12:07:27;;;;;;;3.97;3.60;;;;;;;;;;5030525;28;20793;-67
2023/07/27 12:09:55;;;;;;;4.28;3.90;;;;;;;;;;5038505;28;20467;-69
2023/07/27 12:12:21;;;;;;;3.60;3.30;;;;;;;;;;5036341;28;20821;-65
2023/07/27 12:14:49;;;;;;;3.63;3.33;;;;;;;;;;5032815;28;20417;-67
2023/07/27 12:17:17;;;;;;;3.60;3.30;;;;;;;;;;5034266;28;20418;-66
2023/07/27 12:19:44;;;;;;;4.20;3.25;;;;;;;;;;5033970;28;20477;-66
2023/07/27 12:22:11;;;;;;;4.90;2.70;;;;;;;;;;5033038;28;20419;-66
2023/07/27 12:24:38;;;;;;;2.70;2.50;;;;;;;;;;5040052;28;20426;-66
2023/07/27 12:27:08;;;;;;;3.33;2.67;;;;;;;;;;5032122;28;20427;-67
2023/07/27 12:29:35;;;;;;;2.95;2.53;;;;;;;;;;5030388;28;20441;-66
2023/07/27 12:32:02;;;;;;;3.15;2.35;;;;;;;;;;5039407;28;20423;-66
2023/07/27 12:34:31;;;;;;;3.20;2.20;;;;;;;;;;5032877;28;20415;-69
2023/07/27 12:36:58;;;;;;;2.40;2.10;;;;;;;;;;5032415;28;20565;-65
2023/07/27 12:39:25;;;;;;;2.33;1.90;;;;;;;;;;5029151;28;20972;-66
2023/07/27 12:41:52;;;;;;;1.92;1.70;;;;;;;;;;5033623;28;20426;-67
2023/07/27 12:44:19;;;;;;;1.95;1.48;;;;;;;;;;5039193;28;20486;-67
2023/07/27 12:46:45;;;;;;;1.85;1.50;;;;;;;;;;5038288;28;20493;-66
2023/07/27 12:49:12;;;;;;;2.58;1.48;;;;;;;;;;5037070;28;20446;-67
2023/07/27 12:51:41;;;;;;;1.63;1.48;;;;;;;;;;5041615;28;20796;-67
2023/07/27 12:54:08;;;;;;;1.50;1.27;;;;;;;;;;5045284;28;20410;-68
2023/07/27 12:56:35;;;;;;;2.08;1.40;;;;;;;;;;5038259;28;20835;-66
2023/07/27 12:59:02;;;;;;;1.85;1.45;;;;;;;;;;5038573;28;20421;-67
2023/07/27 13:01:29;;;;;;;2.17;1.60;;;;;;;;;;5028279;28;20502;-68
2023/07/27 13:03:56;;;;;;;2.00;1.90;;;;;;;;;;5037993;28;21153;-68
2023/07/27 13:06:23;;;;;;;2.45;2.15;;;;;;;;;;5041241;28;20423;-62
2023/07/27 13:08:51;;;;;;;4.10;2.27;;;;;;;;;;5035842;28;20417;-63
2023/07/27 13:11:19;;;;;;;2.53;2.33;;;;;;;;;;5037425;28;20431;-62
2023/07/27 13:13:46;;;;;;;3.40;3.10;;;;;;;;;;5036632;28;20421;-62
2023/07/27 13:16:13;;;;;;;3.22;2.30;;;;;;;;;;5038790;28;20421;-62
2023/07/27 13:18:40;;;;;;;2.37;2.17;;;;;;;;;;5039571;28;20411;-62
2023/07/27 13:21:07;;;;;;;2.20;2.00;;;;;;;;;;5046122;28;20901;-63
2023/07/27 13:23:34;;;;;;;3.00;2.20;;;;;;;;;;5035587;28;20426;-63
2023/07/27 13:26:06;;;;;;;3.53;2.60;;;;;;;;;;5036596;28;20915;-63
2023/07/27 13:28:33;;;;;;;2.53;1.80;;;;;;;;;;5029762;28;20442;-62
2023/07/27 13:31:00;;;;;;;2.70;1.77;;;;;;;;;;5036100;28;20888;-62
2023/07/27 13:33:27;;;;;;;1.87;1.73;;;;;;;;;;5032653;28;20419;-62
2023/07/27 13:35:54;;;;;;;1.88;1.67;;;;;;;;;;5034208;28;20422;-62
2023/07/27 13:38:21;;;;;;;2.00;1.50;;;;;;;;;;5031669;28;20485;-62
2023/07/27 13:40:49;;;;;;;1.50;1.40;;;;;;;;;;5031021;28;20419;-62
2023/07/27 13:43:17;;;;;;;1.70;1.60;;;;;;;;;;5033306;28;20423;-62
2023/07/27 13:45:44;;;;;;;2.88;1.58;;;;;;;;;;5038608;28;20427;-62
2023/07/27 13:48:11;;;;;;;2.20;1.50;;;;;;;;;;5031819;28;20427;-62
2023/07/27 13:50:38;;;;;;;2.20;1.70;;;;;;;;;;5038286;28;20417;-63
2023/07/27 13:53:05;;;;;;;2.22;1.70;;;;;;;;;;5036226;28;20793;-62
2023/07/27 13:55:32;;;;;;;2.78;1.70;;;;;;;;;;5036147;28;20411;-63
2023/07/27 13:57:59;;;;;;;2.50;1.80;;;;;;;;;;5038568;28;20419;-63
2023/07/27 14:00:28;;;;;;;2.80;2.20;;;;;;;;;;5041924;28;21029;-62
2023/07/27 14:02:55;;;;;;;2.75;1.95;;;;;;;;;;5037476;28;20475;-64
2023/07/27 14:05:22;;;;;;;2.65;1.92;;;;;;;;;;5031568;28;20462;-64
2023/07/27 14:07:49;;;;;;;2.35;1.80;;;;;;;;;;5037895;28;20417;-64
2023/07/27 14:10:16;;;;;;;3.00;1.90;;;;;;;;;;5046467;28;20474;-63
2023/07/27 14:12:43;;;;;;;2.10;1.90;;;;;;;;;;5040374;28;20445;-63
2023/07/27 14:15:10;;;;;;;2.30;2.10;;;;;;;;;;5044897;28;20416;-63
2023/07/27 14:17:39;;;;;;;3.95;2.03;;;;;;;;;;5038603;28;20422;-64
2023/07/27 14:20:06;;;;;;;2.53;2.27;;;;;;;;;;5038328;28;20890;-62
2023/07/27 14:22:35;;;;;;;3.03;2.07;;;;;;;;;;5035322;28;20596;-62
2023/07/27 14:25:02;;;;;;;2.60;2.20;;;;;;;;;;5032432;28;20483;-63
2023/07/27 14:27:29;;;;;;;2.05;1.85;;;;;;;;;;5033432;28;20423;-62
2023/07/27 14:29:56;;;;;;;2.33;2.10;;;;;;;;;;5033089;28;20481;-62
2023/07/27 14:32:23;;;;;;;3.55;2.20;;;;;;;;;;5036099;28;20463;-62
2023/07/27 14:34:51;;;;;;;2.63;1.90;;;;;;;;;;5030400;28;20476;-62
2023/07/27 14:37:18;;;;;;;2.53;2.03;;;;;;;;;;5032731;28;20438;-63
2023/07/27 14:39:45;;;;;;;3.07;2.00;;;;;;;;;;5037634;28;20454;-63
2023/07/27 14:42:12;;;;;;;2.53;2.00;;;;;;;;;;5031742;28;20492;-63
2023/07/27 14:44:39;;;;;;;2.70;2.10;;;;;;;;;;5040418;28;20440;-63